Woodbridge, Canada
Current Conditions -  °F | °C
As of 9:00 AM on Sunday 25 Jan 2015 (Local Time) from CYYZ Reporting Station
Few Clouds Few Clouds  
Wind Chill: -9°   Ceiling: Unl
Heat Index: 10°   Visibility: 15mi
Dew Point:   Wind: 21mph
Humidity: 73%   Direction: 350°N
Pressure: 29.9"   Gusts: NA
Location:  43.78°N, 79.59°W
Report Text: CYYZ 251400Z 35018KT 15SM FEW200 M12/M16 A2990 RMK CI1 SLP136
Loading
Personal Weather Stations






























Interactive Weather Map New forecast layout! Learn more

10-Day Weather Forecast

Advertisements
Track Severe Weather on mobile